WetterOnline ( http://www.wetteronline.de )

Wetter aktuell Potsdam

Aktuelles Wetter: Potsdam (100m)

6-stündlich | Neueste Meldungen
Ortszeit Temperatur Wetter
Fr, 22.02. 13:00 4.5° C fast wolkenlos
Fr, 22.02. 7:00 4.3° C bedeckt
Fr, 22.02. 1:00 8.4° C Sprühregen
Do, 21.02. 19:00 9.3° C leichter Regen
Do, 21.02. 13:00 10.2° C bewölkt
Do, 21.02. 7:00 5.4° C leichter Regen
Do, 21.02. 1:00 5.7° C bedeckt
Mi, 20.02. 19:00 7.4° C wolkig
Ortszeit Temperatur Wetter
Fr, 22.02. 18:30 0.5° C fast wolkenlos
Fr, 22.02. 18:20 0.5° C wolkenlos
Fr, 22.02. 18:10 0.8° C wolkenlos
Fr, 22.02. 18:00 1.6° C leicht bewölkt
Fr, 22.02. 17:50 1.6° C wolkenlos
Fr, 22.02. 17:40 1.8° C wolkenlos
Fr, 22.02. 17:30 2.2° C leicht bewölkt
Fr, 22.02. 17:00 3.3° C leicht bewölkt
Fr, 22.02. 16:30 3.9° C leicht bewölkt
Fr, 22.02. 16:00 4.2° C leicht bewölkt
Fr, 22.02. 15:30 4.6° C fast wolkenlos
Ortszeit Relative Feuchte Sichtweite
Fr, 22.02. 13:00 42% 40 km
Fr, 22.02. 7:00 90% 35 km
Fr, 22.02. 1:00 97% 5.0 km
Do, 21.02. 19:00 82% 28 km
Do, 21.02. 13:00 69% 29 km
Do, 21.02. 7:00 89% 16 km
Do, 21.02. 1:00 75% 40 km
Mi, 20.02. 19:00 73% 40 km
Ortszeit Relative Feuchte Sichtweite
Fr, 22.02. 18:30 59% 45 km
Fr, 22.02. 18:20 59% -
Fr, 22.02. 18:10 57% -
Fr, 22.02. 18:00 50% 40 km
Fr, 22.02. 17:50 50% -
Fr, 22.02. 17:40 50% -
Fr, 22.02. 17:30 49% 40 km
Fr, 22.02. 17:00 46% 45 km
Fr, 22.02. 16:30 43% 45 km
Fr, 22.02. 16:00 43% 45 km
Fr, 22.02. 15:30 41% 40 km
Ortszeit Niederschlagsmenge Niederschlagsart
Fr, 22.02. 13:00 0.0 l/m2 in 6 Std. -
Fr, 22.02. 7:00 2 l/m2 in 12 Std. Sprühregen
Fr, 22.02. 1:00 2 l/m2 in 6 Std. Regen
Do, 21.02. 19:00 0.5 l/m2 in 12 Std. Regen
Do, 21.02. 13:00 0.4 l/m2 in 6 Std. Regen
Do, 21.02. 7:00 0.1 l/m2 in 12 Std. Regen
Do, 21.02. 1:00 0.0 l/m2 in 6 Std. -
Mi, 20.02. 19:00 0.0 l/m2 in 12 Std. -
Ortszeit Niederschlagsmenge Niederschlagsart
Fr, 22.02. 18:30 0.0 l/m2 in 1 Std. -
Fr, 22.02. 18:20 keine Meldung -
Fr, 22.02. 18:10 keine Meldung -
Fr, 22.02. 18:00 0.0 l/m2 in 1 Std. -
Fr, 22.02. 17:50 keine Meldung -
Fr, 22.02. 17:40 keine Meldung -
Fr, 22.02. 17:30 0.0 l/m2 in 1 Std. -
Fr, 22.02. 17:00 0.0 l/m2 in 1 Std. -
Fr, 22.02. 16:30 0.0 l/m2 in 1 Std. -
Fr, 22.02. 16:00 0.0 l/m2 in 1 Std. -
Fr, 22.02. 15:30 0.0 l/m2 in 1 Std. -
Ortszeit Stärke Spitze Richtung
km/h Bft. km/h Grad Sektor
Fr, 22.02. 13:00 18 3 50 60° NO
Fr, 22.02. 7:00 19 3 44 30° NO
Fr, 22.02. 1:00 20 4 41 320° NW
Do, 21.02. 19:00 19 3 44 270° W
Do, 21.02. 13:00 25 4 43 260° W
Do, 21.02. 7:00 15 3 26 240° SW
Do, 21.02. 1:00 17 3 28 230° SW
Mi, 20.02. 19:00 13 3 37 240° SW
Ortszeit Stärke Spitze Richtung
km/h Bft. km/h Grad Sektor
Fr, 22.02. 18:30 11 2 14 100° O
Fr, 22.02. 18:20 11 2 - 100° O
Fr, 22.02. 18:10 9 2 - 100° O
Fr, 22.02. 18:00 7 2 22 100° O
Fr, 22.02. 17:50 7 2 - 100° O
Fr, 22.02. 17:40 9 2 - 90° O
Fr, 22.02. 17:30 7 2 22 90° O
Fr, 22.02. 17:00 11 2 25 80° O
Fr, 22.02. 16:30 11 2 26 80° O
Fr, 22.02. 16:00 14 3 25 70° O
Fr, 22.02. 15:30 11 2 25 80° O
Ortszeit Untergrenze Bedeckung Gattung
total tief tief mittel hoch
Fr, 22.02. 13:00 600 m 1/8 1/8 Sc - -
Fr, 22.02. 7:00 180 m 8/8 7/8 St - -
Fr, 22.02. 1:00 120 m 8/8 7/8 St - -
Do, 21.02. 19:00 660 m 8/8 7/8 Sc - -
Do, 21.02. 13:00 690 m 7/8 7/8 Cu - -
Do, 21.02. 7:00 1500 m 8/8 8/8 Sc - -
Do, 21.02. 1:00 1290 m 8/8 7/8 Sc - -
Mi, 20.02. 19:00 1500 m 7/8 5/8 Sc Ac -
Ortszeit Bedeckungsgrad in Achtel und Wolkenuntergrenze
Fr, 22.02. 18:30 1(9000m)
Fr, 22.02. 18:20 keine Wolken
Fr, 22.02. 18:10 keine Wolken
Fr, 22.02. 18:00 2(9000m)
Fr, 22.02. 17:50 keine Wolken
Fr, 22.02. 17:40 keine Wolken
Fr, 22.02. 17:30 2(9000m)
Fr, 22.02. 17:00 4(9000m)
Fr, 22.02. 16:30 4(9000m)
Fr, 22.02. 16:00 3(9000m)
Fr, 22.02. 15:30 1(9000m)
Ortszeit Luftdruck NN (hPa) Tendenz (hPa in 3 Std.)
Fr, 22.02. 13:00 1039 + 2,2
Fr, 22.02. 7:00 1032 + 3,9
Fr, 22.02. 1:00 1025 + 1,3
Do, 21.02. 19:00 1023 + 0,4
Do, 21.02. 13:00 1023 - 1,2
Do, 21.02. 7:00 1024 + 0,1
Do, 21.02. 1:00 1024 + 0,2
Mi, 20.02. 19:00 1023 + 1,5
Ortszeit Luftdruck NN (hPa) Tendenz (hPa in 3 Std.)
Fr, 22.02. 18:30 1043 + 2,1
Fr, 22.02. 18:20 1043 keine Meldung
Fr, 22.02. 18:10 1043 keine Meldung
Fr, 22.02. 18:00 1042 + 2,0
Fr, 22.02. 17:50 1042 keine Meldung
Fr, 22.02. 17:40 1042 keine Meldung
Fr, 22.02. 17:30 1042 + 1,7
Fr, 22.02. 17:00 1041 + 1,6
Fr, 22.02. 16:30 1041 + 1,5
Fr, 22.02. 16:00 1041 + 1,6
Fr, 22.02. 15:30 1040 + 1,9
Ortszeit Schneehöhe (cm)
Fr, 22.02. 13:00 0
Fr, 22.02. 7:00 0
Fr, 22.02. 1:00 0
Do, 21.02. 19:00 0
Do, 21.02. 13:00 0
Do, 21.02. 7:00 0
Do, 21.02. 1:00 0
Mi, 20.02. 19:00 0
Ortszeit Schneehöhe (cm)
Fr, 22.02. 18:30 -
Fr, 22.02. 18:20 -
Fr, 22.02. 18:10 -
Fr, 22.02. 18:00 -
Fr, 22.02. 17:50 -
Fr, 22.02. 17:40 -
Fr, 22.02. 17:30 -
Fr, 22.02. 17:00 -
Fr, 22.02. 16:30 -
Fr, 22.02. 16:00 -
Fr, 22.02. 15:30 -
Link zu dieser Seite / Seite empfehlen

Das Wetter in ...